Aérodrome :
LOGIN :

S'inscrire | Disclaimer

   EN    FR    IT 

 










Légende :    VFR   VFR Marginal   IFR   IFR Intensif   IFR Très Intensif
Visi : 
Plafond : 
>= 8 km
>= 3000ft
5 à 8 km
1000 à 3000 ft
1500m à 5 km
500 à 1000 ft
800 à 1500m
200 à 500 ft
< 800m
< 200 ft
Symboles :   Orages  Brouillard  Fortes neiges  Fortes précipitations  Vent > 20 kt
SIGMETs :   Divers  Orages  Givrage  Turbulence  Onde Orograph.  Cendres Volcan.







- Altitude de l'aérodrome : 12 ft
- Code IATA : BCN


LEBL - Barcelone

DERNIER METAR :
  • 251400Z 21014KT 9999 SCT015 19/13 Q1009 NOSIG

METARs EXPIRÉS :
  • 251330Z 21014KT 9999 SCT015 19/14 Q1009 NOSIG
  • 251300Z 22014KT 9999 FEW010 SCT015 19/14 Q1009 NOSIG
  • 251230Z 21012KT 9999 FEW010 SCT015 19/13 Q1010 NOSIG
  • 251200Z 22012KT 9999 FEW012 BKN017 18/14 Q1010 NOSIG
  • 251130Z 21011KT 9999 FEW012 BKN017 18/14 Q1011 NOSIG

TAF TAF LEBL
Valide du 25 à 12h jusqu'au 26 à 12h UTC


251100Z 2512/2612 22010KT 9999 FEW040 TX20/2512Z TN11/2606Z
TEMPO 2514/2517 22012G25KT
BECMG 2518/2520 VRB03KT
PROB30
TEMPO 2518/2612 4000 RA BKN014
BECMG 2608/2610 10010KT
Pas de NOTAMs connus pour ce terrain.
1 SIGMET publié pour la FIR Barcelona (LECB) :
 
Orages noyés dans la masse
LECB SIGMET 1 VALID 251301/251500 LEVA
LECB BARCELONA FIR/UIR EMBD TS OBS AT 1257Z WI N43 W001 - N3940 W00210 - N3920 W00020 - N4220 E00210 TOP FL340 MOV NE NC=



MET'MAP, la Météo Aéronautique d'un coup d'oeil ! - Copyright ORBIFLY Décembre 2007 - Disclaimer

ORBIFLY MET'MAP TEAM :

Programmation & Développement : Alexandra Zaïnal
Conception & Développement : Baudouin d'Aumeries
Co-Programmation & Développement : Marc-Olivier Méhu
Soutien technique & logistique : Manuel Goepfert

Contact : metmap@orbifly.com




SOURCES & CREDITS :

   NOAA